Time;durP1;ratioP1;P1;durP2;ratioP2;P2;SDS_P1;SDS_P2;PMS_P1;PMS_P2;Temp;Humidity;BMP_temperature;BMP_pressure;BME280_temperature;BME280_humidity;BME280_pressure;Samples;Min_cycle;Max_cycle;Signal;HPM_P1;HPM_P2
2023/08/09 00:00:57;;;;;;;13.52;8.15;;;14.00;99.90;;;;;;5076287;28;20437;-57
2023/08/09 00:03:23;;;;;;;17.23;7.38;;;13.40;99.90;;;;;;5080879;28;20063;-57
2023/08/09 00:05:49;;;;;;;17.80;7.97;;;13.40;99.90;;;;;;5084647;28;20032;-57
2023/08/09 00:08:14;;;;;;;12.38;7.75;;;13.40;99.90;;;;;;5101329;28;20043;-57
2023/08/09 00:10:40;;;;;;;12.27;7.82;;;13.30;99.90;;;;;;5098976;28;20039;-57
2023/08/09 00:13:06;;;;;;;15.60;8.48;;;13.30;99.90;;;;;;5062001;28;20087;-57
2023/08/09 00:15:33;;;;;;;13.48;8.45;;;13.30;99.90;;;;;;5065380;28;20066;-57
2023/08/09 00:17:59;;;;;;;12.18;8.25;;;13.30;99.90;;;;;;5079529;28;20067;-57
2023/08/09 00:20:25;;;;;;;15.85;8.95;;;13.30;99.90;;;;;;5091069;28;20032;-57
2023/08/09 00:22:51;;;;;;;21.13;9.95;;;13.20;99.90;;;;;;5093426;28;20050;-57
2023/08/09 00:25:18;;;;;;;15.95;10.07;;;13.30;99.90;;;;;;5080936;28;20048;-57
2023/08/09 00:27:43;;;;;;;16.88;9.80;;;13.20;99.90;;;;;;5086159;28;20052;-57
2023/08/09 00:30:13;;;;;;;20.45;10.45;;;13.20;99.90;;;;;;5080218;28;20047;-57
2023/08/09 00:32:40;;;;;;;20.05;10.85;;;13.20;99.90;;;;;;5073530;28;20076;-57
2023/08/09 00:35:06;;;;;;;13.93;10.20;;;13.20;99.90;;;;;;5079102;28;20076;-57
2023/08/09 00:37:32;;;;;;;20.48;10.98;;;13.20;99.90;;;;;;5080467;28;20036;-57
2023/08/09 00:39:59;;;;;;;22.80;12.20;;;13.20;99.90;;;;;;5077557;28;20045;-57
2023/08/09 00:42:24;;;;;;;22.13;11.88;;;13.20;99.90;;;;;;5060498;28;20041;-57
2023/08/09 00:44:50;;;;;;;25.48;12.60;;;13.20;99.90;;;;;;5057493;28;20051;-57
2023/08/09 00:47:16;;;;;;;20.65;12.07;;;13.30;99.90;;;;;;5105149;28;20094;-57
2023/08/09 00:49:44;;;;;;;29.40;12.70;;;13.10;99.90;;;;;;5073840;28;20078;-56
2023/08/09 00:52:10;;;;;;;41.45;13.10;;;13.20;99.90;;;;;;5078486;28;20078;-57
2023/08/09 00:54:38;;;;;;;22.73;11.98;;;13.20;99.90;;;;;;5079410;28;20041;-57
2023/08/09 00:57:06;;;;;;;41.20;12.77;;;13.20;99.90;;;;;;5083201;28;20032;-56
2023/08/09 00:59:32;;;;;;;37.15;13.02;;;13.20;99.90;;;;;;5084772;28;20058;-57
2023/08/09 01:01:57;;;;;;;22.63;12.05;;;13.20;99.90;;;;;;5082234;28;20064;-57
2023/08/09 01:04:24;;;;;;;21.65;12.15;;;13.10;99.90;;;;;;5084105;28;20044;-58
2023/08/09 01:06:56;;;;;;;17.05;11.93;;;13.10;99.90;;;;;;5083149;28;20329;-57
2023/08/09 01:09:49;;;;;;;24.70;11.93;;;13.10;99.90;;;;;;5083241;28;20146;-57
2023/08/09 01:12:22;;;;;;;23.27;12.27;;;13.10;99.90;;;;;;5093863;28;20044;-57
2023/08/09 01:14:56;;;;;;;22.42;11.82;;;13.10;99.90;;;;;;5102873;28;20086;-57
2023/08/09 01:17:25;;;;;;;26.05;11.93;;;13.10;99.90;;;;;;5069477;28;20040;-57
2023/08/09 01:19:55;;;;;;;49.53;11.20;;;13.10;99.90;;;;;;5083717;28;20044;-57
2023/08/09 01:22:30;;;;;;;30.10;11.63;;;13.10;99.90;;;;;;5081741;28;20139;-58
2023/08/09 01:25:02;;;;;;;30.90;12.63;;;13.00;99.90;;;;;;5097456;28;20032;-56
2023/08/09 01:27:28;;;;;;;50.53;12.10;;;13.00;99.90;;;;;;5102203;28;20075;-58
2023/08/09 01:29:54;;;;;;;48.00;12.00;;;13.00;99.90;;;;;;5091097;28;20045;-57
2023/08/09 01:32:19;;;;;;;90.32;13.00;;;13.00;99.90;;;;;;5094350;28;20105;-57
2023/08/09 01:34:45;;;;;;;71.22;12.10;;;13.00;99.90;;;;;;5082515;28;20067;-58
2023/08/09 01:37:26;;;;;;;86.95;13.73;;;13.00;99.90;;;;;;5080352;28;20531;-57
2023/08/09 01:39:57;;;;;;;45.67;12.27;;;13.00;99.90;;;;;;5074096;28;20048;-58
2023/08/09 01:42:23;;;;;;;72.05;13.35;;;12.90;99.90;;;;;;5082907;28;20029;-57
2023/08/09 01:44:50;;;;;;;60.50;12.05;;;12.90;99.90;;;;;;5082137;28;20335;-57
2023/08/09 01:47:16;;;;;;;58.42;12.73;;;12.90;99.90;;;;;;5083623;28;20036;-58
2023/08/09 01:49:47;;;;;;;60.80;13.07;;;12.90;99.90;;;;;;5076978;28;20077;-57
2023/08/09 01:52:13;;;;;;;65.70;13.73;;;12.90;99.90;;;;;;5078697;28;20044;-57
2023/08/09 01:54:39;;;;;;;60.40;12.35;;;12.80;99.90;;;;;;5076765;28;20033;-57
2023/08/09 01:57:05;;;;;;;90.97;12.57;;;12.80;99.90;;;;;;5072148;28;20094;-57
2023/08/09 01:59:30;;;;;;;63.65;12.52;;;12.80;99.90;;;;;;5082984;28;20416;-58
2023/08/09 02:01:56;;;;;;;54.03;11.15;;;12.70;99.90;;;;;;5081076;28;20051;-57
2023/08/09 02:04:24;;;;;;;57.53;12.50;;;12.70;99.90;;;;;;5083042;28;20068;-58
2023/08/09 02:06:49;;;;;;;57.45;12.35;;;12.70;99.90;;;;;;5085114;28;20040;-58
2023/08/09 02:09:15;;;;;;;35.08;12.07;;;12.70;99.90;;;;;;5100840;28;20073;-58
2023/08/09 02:11:41;;;;;;;67.47;12.40;;;12.70;99.90;;;;;;5087853;28;20037;-57
2023/08/09 02:14:07;;;;;;;42.65;11.98;;;12.60;99.90;;;;;;5077851;28;21648;-57
2023/08/09 02:16:33;;;;;;;26.88;11.95;;;12.70;99.90;;;;;;5083228;28;20047;-58
2023/08/09 02:18:59;;;;;;;16.63;11.48;;;12.60;99.90;;;;;;5081497;28;20488;-57
2023/08/09 02:21:26;;;;;;;21.45;12.27;;;12.60;99.90;;;;;;5083450;28;20056;-57
2023/08/09 02:23:51;;;;;;;28.17;12.60;;;12.60;99.90;;;;;;5097716;28;20048;-57
2023/08/09 02:26:20;;;;;;;27.48;11.55;;;12.60;99.90;;;;;;5092143;28;20064;-58
2023/08/09 02:28:45;;;;;;;38.88;12.45;;;12.60;99.90;;;;;;5101052;28;20442;-57
2023/08/09 02:31:11;;;;;;;39.55;11.90;;;12.60;99.90;;;;;;5087889;28;20036;-57
2023/08/09 02:33:38;;;;;;;46.42;12.93;;;12.60;99.90;;;;;;5082496;28;20048;-57
2023/08/09 02:36:03;;;;;;;67.93;13.27;;;12.50;99.90;;;;;;5081033;28;20405;-59
2023/08/09 02:38:29;;;;;;;36.80;12.77;;;12.50;99.90;;;;;;5091360;28;20032;-57
2023/08/09 02:40:55;;;;;;;76.32;14.30;;;12.50;99.90;;;;;;5084216;28;20032;-57
2023/08/09 02:43:25;;;;;;;79.80;13.07;;;12.50;99.90;;;;;;5081770;28;20087;-57
2023/08/09 02:45:52;;;;;;;83.15;13.40;;;12.50;99.90;;;;;;5082258;28;20040;-58
2023/08/09 02:48:18;;;;;;;129.10;14.50;;;12.50;99.90;;;;;;5069259;28;20045;-57
2023/08/09 02:50:44;;;;;;;204.95;14.43;;;12.50;99.90;;;;;;5065938;28;20939;-58
2023/08/09 02:53:10;;;;;;;208.13;14.88;;;12.50;99.90;;;;;;5080670;28;20040;-58
2023/08/09 02:55:36;;;;;;;147.65;13.77;;;12.40;99.90;;;;;;5081529;28;20119;-58
2023/08/09 02:58:04;;;;;;;249.95;16.50;;;12.40;99.90;;;;;;5072400;28;20049;-57
2023/08/09 03:00:33;;;;;;;196.85;14.75;;;12.40;99.90;;;;;;5077094;28;20072;-57
2023/08/09 03:03:00;;;;;;;214.52;14.82;;;12.30;99.90;;;;;;5077524;28;20048;-57
2023/08/09 03:05:27;;;;;;;242.65;15.52;;;12.30;99.90;;;;;;5064118;28;20037;-57
2023/08/09 03:07:53;;;;;;;205.95;15.68;;;12.30;99.90;;;;;;5089241;28;20059;-57
2023/08/09 03:10:19;;;;;;;109.88;12.55;;;12.30;99.90;;;;;;5096119;28;20040;-57
2023/08/09 03:12:45;;;;;;;109.85;13.10;;;12.30;99.90;;;;;;5069601;28;20507;-57
2023/08/09 03:15:11;;;;;;;141.48;14.18;;;12.30;99.90;;;;;;5080754;28;20550;-56
2023/08/09 03:17:37;;;;;;;79.45;12.88;;;12.30;99.90;;;;;;5079213;28;20067;-58
2023/08/09 03:20:09;;;;;;;105.18;13.55;;;12.30;99.90;;;;;;5080242;28;20059;-57
2023/08/09 03:22:35;;;;;;;124.78;13.63;;;12.30;99.90;;;;;;5075661;28;20059;-57
2023/08/09 03:25:00;;;;;;;128.93;14.43;;;12.30;99.90;;;;;;5085787;28;20044;-57
2023/08/09 03:27:26;;;;;;;159.02;13.88;;;12.30;99.90;;;;;;5100056;28;20480;-57
2023/08/09 03:29:52;;;;;;;99.20;13.38;;;12.30;99.90;;;;;;5097995;28;20044;-57
2023/08/09 03:32:17;;;;;;;97.75;12.23;;;12.30;99.90;;;;;;5079890;28;20048;-56
2023/08/09 03:34:43;;;;;;;143.32;13.48;;;12.30;99.90;;;;;;5085827;28;20122;-58
2023/08/09 03:37:10;;;;;;;89.32;12.32;;;12.20;99.90;;;;;;5100216;28;20047;-57
2023/08/09 03:39:36;;;;;;;108.57;12.90;;;12.20;99.90;;;;;;5073648;28;20424;-57
2023/08/09 03:42:02;;;;;;;117.22;12.98;;;12.20;99.90;;;;;;5067916;28;20050;-57
2023/08/09 03:44:27;;;;;;;71.40;12.95;;;12.10;99.90;;;;;;5079234;28;20041;-57
2023/08/09 03:46:55;;;;;;;109.22;12.68;;;12.20;99.90;;;;;;5081876;28;20084;-57
2023/08/09 03:49:21;;;;;;;81.82;12.35;;;12.20;99.90;;;;;;5091764;28;20036;-57
2023/08/09 03:51:46;;;;;;;151.75;13.85;;;12.20;99.90;;;;;;5077853;28;20049;-57
2023/08/09 03:54:12;;;;;;;99.85;12.73;;;12.10;99.90;;;;;;5061058;28;20055;-57
2023/08/09 03:56:37;;;;;;;81.85;12.52;;;12.10;99.90;;;;;;5072036;28;20033;-57
2023/08/09 03:59:03;;;;;;;73.60;12.30;;;12.10;99.90;;;;;;5083929;28;20099;-57
2023/08/09 04:01:29;;;;;;;97.72;12.60;;;12.00;99.90;;;;;;5090391;28;20036;-57
2023/08/09 04:03:54;;;;;;;129.05;13.18;;;12.00;99.90;;;;;;5097897;28;20036;-57
2023/08/09 04:06:20;;;;;;;65.30;11.45;;;12.00;99.90;;;;;;5098477;28;20037;-56
2023/08/09 04:08:46;;;;;;;44.08;11.60;;;12.00;99.90;;;;;;5100566;28;20121;-57
2023/08/09 04:11:12;;;;;;;52.00;11.65;;;12.00;99.90;;;;;;5093369;28;20078;-57
2023/08/09 04:13:37;;;;;;;50.03;11.27;;;12.00;99.90;;;;;;5078417;28;20044;-57
2023/08/09 04:16:03;;;;;;;94.85;12.32;;;12.00;99.90;;;;;;5082719;28;20816;-56
2023/08/09 04:18:29;;;;;;;90.10;12.00;;;12.00;99.90;;;;;;5099781;28;20459;-57
2023/08/09 04:20:55;;;;;;;60.13;11.07;;;12.00;99.90;;;;;;5096172;28;20040;-57
2023/08/09 04:23:21;;;;;;;62.28;10.35;;;12.00;99.90;;;;;;5088708;28;20056;-57
2023/08/09 04:25:47;;;;;;;69.00;11.57;;;11.90;99.90;;;;;;5086972;28;20048;-57
2023/08/09 04:28:12;;;;;;;46.95;10.98;;;12.00;99.90;;;;;;5080215;28;20049;-56
2023/08/09 04:30:38;;;;;;;62.08;12.27;;;12.00;99.90;;;;;;5081413;28;20040;-57
2023/08/09 04:33:04;;;;;;;68.78;11.25;;;12.00;99.90;;;;;;5080118;28;20044;-57
2023/08/09 04:35:31;;;;;;;76.75;11.45;;;12.00;99.90;;;;;;5078486;28;20041;-57
2023/08/09 04:37:57;;;;;;;172.02;14.93;;;12.00;99.90;;;;;;5090874;28;20114;-57
2023/08/09 04:40:25;;;;;;;220.88;14.07;;;12.00;99.90;;;;;;5061002;28;20041;-57
2023/08/09 04:42:51;;;;;;;200.10;14.00;;;12.00;99.90;;;;;;5073723;28;20185;-57
2023/08/09 04:45:17;;;;;;;149.10;13.55;;;12.00;99.90;;;;;;5077029;28;20056;-57
2023/08/09 04:47:43;;;;;;;201.90;14.63;;;12.00;99.90;;;;;;5068626;28;20040;-57
2023/08/09 04:50:10;;;;;;;198.90;14.88;;;12.00;99.90;;;;;;5067892;28;20044;-57
2023/08/09 04:52:37;;;;;;;257.05;14.45;;;12.00;99.90;;;;;;5078768;28;20040;-54
2023/08/09 04:55:03;;;;;;;162.85;14.32;;;12.00;99.90;;;;;;5079302;28;20068;-57
2023/08/09 04:57:31;;;;;;;312.17;15.88;;;12.00;99.90;;;;;;5087581;28;20040;-57
2023/08/09 04:59:57;;;;;;;200.70;13.93;;;12.00;99.90;;;;;;5076021;28;20033;-57
2023/08/09 05:02:23;;;;;;;152.13;12.93;;;12.10;99.90;;;;;;5078436;28;20049;-57
2023/08/09 05:04:49;;;;;;;219.38;14.65;;;12.10;99.90;;;;;;5070664;28;20473;-57
2023/08/09 05:07:14;;;;;;;228.35;14.77;;;12.10;99.90;;;;;;5081112;28;20040;-57
2023/08/09 05:09:40;;;;;;;238.05;14.60;;;12.10;99.90;;;;;;5091817;28;20074;-57
2023/08/09 05:12:06;;;;;;;199.90;14.15;;;12.20;99.90;;;;;;5080516;28;20079;-56
2023/08/09 05:14:32;;;;;;;185.40;14.20;;;12.20;99.90;;;;;;5077963;28;20395;-57
2023/08/09 05:16:58;;;;;;;161.57;13.70;;;12.20;99.90;;;;;;5081749;28;20119;-57
2023/08/09 05:19:24;;;;;;;224.02;16.08;;;12.20;99.90;;;;;;5068713;28;20041;-57
2023/08/09 05:21:50;;;;;;;217.73;15.98;;;12.30;99.90;;;;;;5064728;28;20085;-57
2023/08/09 05:24:16;;;;;;;133.75;13.90;;;12.30;99.90;;;;;;5080507;28;20045;-57
2023/08/09 05:26:41;;;;;;;85.97;12.38;;;12.30;99.90;;;;;;5077142;28;20047;-57
2023/08/09 05:29:07;;;;;;;70.47;12.32;;;12.40;99.90;;;;;;5076453;28;20071;-57
2023/08/09 05:31:33;;;;;;;112.97;13.30;;;12.40;99.90;;;;;;5087992;28;20080;-57
2023/08/09 05:33:59;;;;;;;143.63;13.50;;;12.50;99.90;;;;;;5098501;28;20044;-57
2023/08/09 05:36:25;;;;;;;128.32;14.95;;;12.50;99.90;;;;;;5098989;28;20068;-57
2023/08/09 05:38:51;;;;;;;103.50;14.13;;;12.60;99.90;;;;;;5069045;28;20041;-57
2023/08/09 05:41:16;;;;;;;74.03;13.15;;;12.60;99.90;;;;;;5067396;28;20119;-57
2023/08/09 05:43:42;;;;;;;46.55;12.82;;;12.70;99.90;;;;;;5084586;28;20044;-57
2023/08/09 05:46:08;;;;;;;65.43;13.63;;;12.40;99.90;;;;;;5103326;28;20044;-57
2023/08/09 05:48:34;;;;;;;111.57;15.23;;;12.70;99.90;;;;;;5095959;28;20123;-57
2023/08/09 05:51:00;;;;;;;69.25;14.98;;;12.80;99.90;;;;;;5063821;28;20047;-57
2023/08/09 05:53:26;;;;;;;32.47;13.77;;;12.80;99.90;;;;;;5080650;28;20127;-57
2023/08/09 05:55:52;;;;;;;27.95;13.10;;;12.90;99.90;;;;;;5073588;28;20040;-56
2023/08/09 05:58:18;;;;;;;34.92;14.27;;;13.00;99.90;;;;;;5081657;28;20044;-57
2023/08/09 06:00:43;;;;;;;27.45;13.98;;;13.10;99.90;;;;;;5078095;28;20036;-57
2023/08/09 06:03:09;;;;;;;26.23;13.48;;;13.10;99.90;;;;;;5082052;28;20066;-57
2023/08/09 06:05:35;;;;;;;27.35;13.15;;;13.20;99.90;;;;;;5081114;28;20045;-57
2023/08/09 06:08:00;;;;;;;20.08;13.52;;;13.20;99.90;;;;;;5086847;28;20036;-57
2023/08/09 06:10:26;;;;;;;25.00;13.85;;;13.30;99.90;;;;;;5082569;28;20040;-57
2023/08/09 06:12:52;;;;;;;19.50;13.77;;;13.30;99.90;;;;;;5089439;28;20052;-57
2023/08/09 06:15:19;;;;;;;18.90;13.65;;;13.40;99.90;;;;;;5093357;28;20823;-57
2023/08/09 06:17:45;;;;;;;20.95;14.13;;;13.50;99.90;;;;;;5075826;28;20044;-57
2023/08/09 06:20:14;;;;;;;21.58;14.77;;;13.50;99.90;;;;;;5078231;28;20036;-56
2023/08/09 06:22:41;;;;;;;21.33;14.27;;;13.60;99.90;;;;;;5080902;28;20040;-57
2023/08/09 06:25:09;;;;;;;18.80;14.07;;;13.60;99.90;;;;;;5082516;28;20048;-57
2023/08/09 06:27:35;;;;;;;17.45;13.85;;;13.70;99.90;;;;;;5065314;28;20099;-57
2023/08/09 06:30:00;;;;;;;19.85;13.60;;;13.70;99.90;;;;;;5068575;28;20045;-57
2023/08/09 06:32:27;;;;;;;21.83;14.77;;;13.70;99.90;;;;;;5062373;28;20048;-57
2023/08/09 06:34:52;;;;;;;22.52;15.18;;;13.80;99.90;;;;;;5074833;28;20076;-57
2023/08/09 06:37:18;;;;;;;26.02;15.07;;;13.90;99.90;;;;;;5081367;28;20064;-56
2023/08/09 06:39:44;;;;;;;24.30;14.95;;;13.90;99.90;;;;;;5082017;28;20048;-57
2023/08/09 06:42:12;;;;;;;21.20;13.98;;;14.00;99.90;;;;;;5082792;28;20032;-57
2023/08/09 06:44:38;;;;;;;21.08;14.63;;;14.00;99.90;;;;;;5079493;28;20052;-56
2023/08/09 06:47:04;;;;;;;21.08;14.75;;;14.00;99.90;;;;;;5065527;28;20049;-57
2023/08/09 06:49:30;;;;;;;19.23;13.98;;;14.20;99.90;;;;;;5076343;28;20044;-57
2023/08/09 06:51:58;;;;;;;16.40;12.98;;;14.30;99.90;;;;;;5080202;28;20033;-56
2023/08/09 06:54:25;;;;;;;19.23;13.70;;;14.40;99.90;;;;;;5075462;28;20036;-57
2023/08/09 06:56:50;;;;;;;17.65;12.45;;;14.40;99.90;;;;;;5080907;28;20598;-57
2023/08/09 06:59:16;;;;;;;18.83;13.52;;;14.50;99.90;;;;;;5071808;28;20036;-57
2023/08/09 07:01:47;;;;;;;18.70;12.88;;;14.60;99.90;;;;;;5082019;28;20045;-57
2023/08/09 07:04:13;;;;;;;18.90;13.07;;;14.60;99.90;;;;;;5073830;28;20047;-57
2023/08/09 07:06:39;;;;;;;16.70;11.98;;;14.70;99.90;;;;;;5079560;28;20068;-58
2023/08/09 07:09:05;;;;;;;14.30;11.77;;;14.80;99.90;;;;;;5073436;28;20040;-57
2023/08/09 07:11:31;;;;;;;13.52;11.75;;;14.90;99.90;;;;;;5075923;28;20052;-57
2023/08/09 07:13:56;;;;;;;13.65;11.50;;;15.00;99.90;;;;;;5087137;28;20054;-57
2023/08/09 07:16:23;;;;;;;11.77;10.57;;;15.20;99.90;;;;;;5082425;28;20048;-57
2023/08/09 07:18:49;;;;;;;14.18;11.50;;;15.40;99.90;;;;;;5080557;28;20098;-58
2023/08/09 07:21:16;;;;;;;10.68;9.57;;;15.50;99.90;;;;;;5081268;28;20029;-57
2023/08/09 07:23:41;;;;;;;10.60;9.50;;;15.70;99.90;;;;;;5080451;28;20049;-56
2023/08/09 07:26:07;;;;;;;12.85;9.30;;;16.00;99.90;;;;;;5080933;28;20048;-57
2023/08/09 07:28:33;;;;;;;10.80;9.20;;;16.30;99.90;;;;;;5079319;28;20087;-58
2023/08/09 07:30:58;;;;;;;13.68;9.32;;;16.50;99.90;;;;;;5078850;28;20044;-58
2023/08/09 07:33:24;;;;;;;13.35;8.70;;;16.50;99.90;;;;;;5080658;28;20044;-58
2023/08/09 07:35:50;;;;;;;10.75;8.82;;;16.50;99.90;;;;;;5076500;28;20069;-57
2023/08/09 07:38:16;;;;;;;9.60;8.27;;;16.50;99.90;;;;;;5083413;28;20037;-57
2023/08/09 07:40:42;;;;;;;10.85;8.43;;;16.70;99.90;;;;;;5074074;28;20051;-58
2023/08/09 07:43:07;;;;;;;10.73;8.32;;;16.80;99.90;;;;;;5077166;28;20040;-58
2023/08/09 07:45:33;;;;;;;9.93;8.32;;;16.90;99.90;;;;;;5079226;28;20033;-57
2023/08/09 07:47:59;;;;;;;9.93;7.78;;;17.10;99.90;;;;;;5070188;28;20048;-57
2023/08/09 07:50:25;;;;;;;9.90;7.57;;;17.40;99.90;;;;;;5077267;28;20060;-58
2023/08/09 07:52:51;;;;;;;10.55;7.75;;;17.60;99.90;;;;;;5068283;28;20037;-58
2023/08/09 07:55:18;;;;;;;8.90;7.10;;;17.80;99.90;;;;;;5059050;28;20037;-57
2023/08/09 07:57:44;;;;;;;10.05;7.35;;;17.90;99.90;;;;;;5073439;28;20518;-58
2023/08/09 08:00:17;;;;;;;8.50;7.45;;;18.10;99.90;;;;;;5060773;28;20044;-57
2023/08/09 08:02:44;;;;;;;8.50;7.13;;;18.20;99.90;;;;;;5075035;28;20068;-57
2023/08/09 08:05:11;;;;;;;11.13;7.68;;;18.20;99.90;;;;;;5062876;28;20052;-57
2023/08/09 08:07:38;;;;;;;12.80;8.00;;;18.10;99.90;;;;;;5074311;28;20040;-58
2023/08/09 08:10:08;;;;;;;10.98;7.70;;;18.10;99.90;;;;;;5060866;28;20110;-57
2023/08/09 08:12:34;;;;;;;7.65;6.85;;;18.10;99.90;;;;;;5104570;28;20059;-58
2023/08/09 08:15:00;;;;;;;8.48;7.13;;;18.10;99.90;;;;;;5076741;28;20055;-57
2023/08/09 08:17:26;;;;;;;10.07;7.03;;;18.30;99.90;;;;;;5066446;28;20108;-57
2023/08/09 08:19:53;;;;;;;8.65;6.78;;;18.40;99.90;;;;;;5070796;28;20466;-57
2023/08/09 08:22:18;;;;;;;8.75;6.50;;;18.50;99.90;;;;;;5074801;28;20064;-57
2023/08/09 08:24:44;;;;;;;9.13;6.78;;;18.40;99.90;;;;;;5068053;28;20052;-57
2023/08/09 08:27:10;;;;;;;7.38;6.63;;;18.50;99.90;;;;;;5061871;28;20045;-57
2023/08/09 08:29:36;;;;;;;7.78;6.50;;;18.60;99.90;;;;;;5073816;28;20059;-57
2023/08/09 08:32:02;;;;;;;7.45;6.45;;;18.60;99.90;;;;;;5077805;28;20078;-57
2023/08/09 08:34:31;;;;;;;9.00;6.00;;;18.60;99.90;;;;;;5068141;28;20050;-58
2023/08/09 08:37:00;;;;;;;10.27;6.50;;;18.60;99.90;;;;;;5089258;28;20049;-58
2023/08/09 08:39:29;;;;;;;7.53;6.03;;;18.60;99.90;;;;;;5070254;28;20044;-58
2023/08/09 08:41:58;;;;;;;7.72;6.43;;;18.50;99.90;;;;;;5067013;28;20041;-57
2023/08/09 08:44:25;;;;;;;8.13;6.32;;;18.40;99.90;;;;;;5065241;28;20072;-57
2023/08/09 08:46:51;;;;;;;7.82;6.40;;;18.50;99.90;;;;;;5063141;28;20456;-57
2023/08/09 08:49:20;;;;;;;9.80;6.15;;;18.50;99.90;;;;;;5061668;28;20083;-57
2023/08/09 08:51:50;;;;;;;7.35;4.22;;;18.60;99.90;;;;;;5068735;28;20045;-57
2023/08/09 08:54:16;;;;;;;6.32;3.70;;;18.70;99.90;;;;;;5066678;28;20045;-58
2023/08/09 08:56:42;;;;;;;5.90;3.95;;;18.70;99.90;;;;;;5069579;28;20053;-58
2023/08/09 08:59:08;;;;;;;8.55;5.13;;;18.80;99.90;;;;;;5068431;28;20045;-57
2023/08/09 09:01:34;;;;;;;7.88;4.30;;;18.80;99.90;;;;;;5061118;28;20041;-58
2023/08/09 09:04:01;;;;;;;5.97;3.65;;;18.80;99.90;;;;;;5068445;28;20079;-57
2023/08/09 09:06:27;;;;;;;5.38;3.50;;;18.90;99.90;;;;;;5065499;28;20398;-58
2023/08/09 09:08:55;;;;;;;6.05;2.60;;;18.80;99.90;;;;;;5065672;28;20072;-57
2023/08/09 09:11:23;;;;;;;2.50;1.40;;;18.80;99.90;;;;;;5066198;28;20041;-57
2023/08/09 09:13:51;;;;;;;3.75;1.52;;;18.80;99.90;;;;;;5066813;28;20040;-57
2023/08/09 09:16:18;;;;;;;4.00;1.35;;;18.80;99.90;;;;;;5068343;28;20032;-57
2023/08/09 09:18:46;;;;;;;3.40;1.20;;;18.80;99.90;;;;;;5067216;28;20044;-58
2023/08/09 09:21:14;;;;;;;2.60;1.30;;;18.80;99.90;;;;;;5081800;28;20036;-57
2023/08/09 09:23:40;;;;;;;3.45;1.38;;;18.90;99.90;;;;;;5074964;28;20066;-57
2023/08/09 09:26:08;;;;;;;2.67;1.20;;;19.00;99.90;;;;;;5066229;28;20041;-58
2023/08/09 09:28:44;;;;;;;2.75;1.55;;;19.20;99.90;;;;;;5067269;28;20454;-58
2023/08/09 09:31:17;;;;;;;5.70;1.30;;;19.30;99.90;;;;;;5065324;28;20049;-57
2023/08/09 09:33:54;;;;;;;1.88;1.00;;;19.40;99.90;;;;;;5068517;28;20049;-57
2023/08/09 09:36:19;;;;;;;1.80;1.00;;;19.50;99.90;;;;;;5068537;28;20051;-57
2023/08/09 09:38:50;;;;;;;3.28;1.20;;;19.50;99.90;;;;;;5071350;28;20024;-57
2023/08/09 09:41:16;;;;;;;2.60;1.10;;;19.50;99.90;;;;;;5071863;28;21165;-58
2023/08/09 09:43:42;;;;;;;2.95;1.30;;;19.50;99.90;;;;;;5068854;28;20095;-58
2023/08/09 09:46:22;;;;;;;2.42;1.25;;;19.60;99.90;;;;;;5074289;28;20044;-58
2023/08/09 09:49:08;;;;;;;2.35;1.10;;;19.70;99.90;;;;;;5071266;28;20052;-57
2023/08/09 09:51:34;;;;;;;;;;;19.80;99.90;;;;;;5074025;28;20039;-58
2023/08/09 09:54:00;;;;;;;2.70;1.42;;;19.80;99.90;;;;;;5072560;28;19924;-57
2023/08/09 09:56:26;;;;;;;4.05;1.20;;;19.80;99.90;;;;;;5070865;28;20143;-57
2023/08/09 09:58:52;;;;;;;2.92;1.10;;;19.80;99.90;;;;;;5068530;28;20055;-57
2023/08/09 10:01:26;;;;;;;3.03;1.20;;;19.70;99.90;;;;;;5074608;28;20138;-58
2023/08/09 10:04:06;;;;;;;4.35;1.23;;;19.70;99.90;;;;;;5065034;28;20053;-57
2023/08/09 10:06:35;;;;;;;4.13;1.20;;;19.70;99.90;;;;;;5071549;28;20051;-57
2023/08/09 10:09:04;;;;;;;4.30;1.60;;;19.60;99.90;;;;;;5067476;28;20041;-57
2023/08/09 10:11:33;;;;;;;2.75;1.33;;;19.70;99.90;;;;;;5063415;28;20041;-58
2023/08/09 10:14:03;;;;;;;2.60;1.08;;;19.70;99.90;;;;;;5064134;28;20052;-59
2023/08/09 10:16:31;;;;;;;3.53;1.33;;;19.70;99.90;;;;;;5071337;28;20048;-57
2023/08/09 10:19:02;;;;;;;2.47;0.98;;;19.80;99.90;;;;;;5068413;28;20036;-57
2023/08/09 10:21:28;;;;;;;2.30;1.20;;;19.80;99.90;;;;;;5069775;28;20033;-58
2023/08/09 10:24:13;;;;;;;3.60;1.13;;;19.90;99.90;;;;;;5073282;28;20056;-57
2023/08/09 10:26:41;;;;;;;3.20;1.40;;;19.90;99.90;;;;;;5067217;28;20033;-57
2023/08/09 10:29:14;;;;;;;3.00;1.55;;;19.90;99.90;;;;;;5066851;28;20311;-57
2023/08/09 10:31:51;;;;;;;4.00;1.42;;;19.90;99.90;;;;;;5074799;28;20048;-57
2023/08/09 10:34:18;;;;;;;3.53;1.52;;;20.00;99.90;;;;;;5065844;28;20042;-57
2023/08/09 10:36:55;;;;;;;2.30;1.40;;;20.00;99.90;;;;;;5072927;28;20041;-58
2023/08/09 10:39:22;;;;;;;6.40;1.60;;;20.00;99.90;;;;;;5066367;28;20040;-57
2023/08/09 10:41:58;;;;;;;3.45;1.50;;;20.00;99.90;;;;;;5066286;28;20036;-57
2023/08/09 10:44:43;;;;;;;4.38;1.67;;;20.10;99.90;;;;;;5069067;28;20062;-57
2023/08/09 10:47:11;;;;;;;3.20;1.38;;;20.20;99.90;;;;;;5099231;28;20654;-58
2023/08/09 10:49:59;;;;;;;2.28;1.60;;;20.30;99.90;;;;;;5070625;28;20047;-58
2023/08/09 10:52:36;;;;;;;6.10;1.58;;;20.30;99.90;;;;;;5068561;28;20044;-58
2023/08/09 10:55:21;;;;;;;3.47;1.50;;;20.20;99.90;;;;;;5063195;28;20384;-57
2023/08/09 10:57:48;;;;;;;3.70;1.40;;;20.30;99.90;;;;;;5066152;28;20177;-57
2023/08/09 11:00:15;;;;;;;6.35;1.70;;;20.30;99.90;;;;;;5064002;28;20036;-57
2023/08/09 11:02:48;;;;;;;3.25;1.67;;;20.30;99.90;;;;;;5061931;28;20047;-57
2023/08/09 11:05:14;;;;;;;3.15;1.58;;;20.30;99.90;;;;;;5066531;28;20045;-58
2023/08/09 11:07:55;;;;;;;3.58;1.50;;;20.30;99.90;;;;;;5069267;28;20076;-57
2023/08/09 11:10:40;;;;;;;3.00;1.48;;;20.40;99.90;;;;;;5064822;28;20080;-58
2023/08/09 11:13:11;;;;;;;4.13;1.85;;;20.40;99.90;;;;;;5062146;28;20079;-58
2023/08/09 11:15:37;;;;;;;3.08;2.10;;;20.40;99.90;;;;;;5101236;28;20032;-58
2023/08/09 11:18:04;;;;;;;6.93;1.63;;;20.50;99.90;;;;;;5064056;28;20050;-58
2023/08/09 11:20:30;;;;;;;3.25;1.58;;;20.50;99.90;;;;;;5073438;28;20088;-57
2023/08/09 11:22:57;;;;;;;3.47;1.80;;;20.60;99.90;;;;;;5063437;28;20049;-58
2023/08/09 11:25:25;;;;;;;3.78;1.70;;;20.60;99.90;;;;;;5074673;28;20055;-58
2023/08/09 11:27:55;;;;;;;4.65;1.30;;;20.70;99.90;;;;;;5065402;28;20048;-57
2023/08/09 11:30:22;;;;;;;3.28;1.58;;;20.70;99.90;;;;;;5070035;28;20033;-58
2023/08/09 11:33:02;;;;;;;4.60;1.60;;;20.70;99.90;;;;;;5063560;28;20048;-58
2023/08/09 11:35:42;;;;;;;3.65;1.90;;;20.70;99.90;;;;;;5068493;28;21323;-58
2023/08/09 11:38:10;;;;;;;4.28;1.50;;;20.70;99.90;;;;;;5069591;28;20085;-58
2023/08/09 11:40:48;;;;;;;5.28;1.70;;;20.70;99.90;;;;;;5068246;28;20029;-57
2023/08/09 11:43:17;;;;;;;2.80;1.60;;;20.70;99.90;;;;;;5068689;28;20557;-58
2023/08/09 11:45:48;;;;;;;3.97;1.95;;;20.80;99.90;;;;;;5075604;28;20044;-58
2023/08/09 11:48:29;;;;;;;3.63;1.67;;;20.80;99.90;;;;;;5058821;28;20067;-58
2023/08/09 11:51:05;;;;;;;4.43;1.80;;;20.90;99.90;;;;;;5075554;28;20037;-58
2023/08/09 11:53:33;;;;;;;5.40;1.73;;;20.90;99.90;;;;;;5065504;28;20044;-58
2023/08/09 11:56:01;;;;;;;4.53;1.60;;;20.90;99.90;;;;;;5073302;28;20042;-58
2023/08/09 11:58:26;;;;;;;3.85;1.60;;;21.00;99.90;;;;;;5062064;28;20061;-58
2023/08/09 12:00:53;;;;;;;4.07;1.50;;;21.10;99.90;;;;;;5071348;28;20520;-58
2023/08/09 12:03:22;;;;;;;3.85;1.50;;;21.30;99.90;;;;;;5063998;28;20058;-58
2023/08/09 12:05:51;;;;;;;4.53;1.50;;;21.30;99.90;;;;;;5064673;28;20041;-58
2023/08/09 12:08:30;;;;;;;4.82;1.67;;;21.30;99.90;;;;;;5068957;28;20457;-58
2023/08/09 12:10:55;;;;;;;3.15;1.65;;;21.40;99.90;;;;;;5069400;28;20053;-58
2023/08/09 12:13:22;;;;;;;3.97;1.40;;;21.40;99.90;;;;;;5067638;28;20105;-58
2023/08/09 12:15:47;;;;;;;2.13;1.27;;;21.30;99.90;;;;;;5064794;28;20048;-58
2023/08/09 12:18:13;;;;;;;4.07;1.55;;;21.30;99.90;;;;;;5065303;28;20040;-58
2023/08/09 12:20:39;;;;;;;2.45;1.58;;;21.20;99.90;;;;;;5069105;28;20048;-58
2023/08/09 12:23:04;;;;;;;4.13;1.50;;;21.20;99.90;;;;;;5073475;28;20480;-58
2023/08/09 12:25:30;;;;;;;4.32;1.40;;;21.20;99.90;;;;;;5065549;28;20497;-58
2023/08/09 12:27:56;;;;;;;3.75;1.35;;;21.30;99.90;;;;;;5063830;28;20055;-59
2023/08/09 12:30:21;;;;;;;2.65;1.30;;;21.30;99.90;;;;;;5068989;28;20033;-58
2023/08/09 12:32:47;;;;;;;5.63;1.73;;;21.30;99.90;;;;;;5073708;28;20568;-58
2023/08/09 12:35:13;;;;;;;4.05;1.55;;;21.30;99.90;;;;;;5061578;28;20064;-58